Southern Illinois Airport
KMDH : now visible

Airfield :











YOU CAN JOIN US ON...

 
LOGIN :

Register | Disclaimer

   EN    FR    IT 

 









Legend :    VFR   Marginal VFR   IFR   Intensive IFR   Very Intensive IFR
Visi :
Ceiling :
>= 8 km
>= 3000ft
5 to 8 km
1000 to 3000 ft
1500m to 5 km
500 to 1000 ft
800 to 1500m
200 to 500 ft
< 800m
< 200 ft
Symbols :   Thunderstorms  Fog  Heavy snow  Heavy precipitations  Wind > 20 kt







- Airport Elevation : 411 ft
- IATA code : MDH


KMDH - Southern Illinois

CURRENT METAR :
  • 210352Z AUTO 00000KT 5SM BR BKN047 21/21 A3015 RMK AO2 SLP207 T02110206

EXPIRED METARs :
  • 210252Z AUTO 10004KT 6SM BR CLR 21/21 A3015 RMK AO2 RAE04 SLP204 P0000 60012 T02110206 53000
  • 210152Z 15003KT 9SM -RA FEW040 FEW110 22/20 A3014 RMK AO2 SLP203 P0002 T02170200

TAF N/A
No reported NOTAMs for that airfield.



MET'MAP, your aeronautical weather chart ! - Copyright ORBIFLY December 2007 - Disclaimer

ORBIFLY MET'MAP TEAM :

Programming & Development : Alexandra Zaïnal
Concept & Development : Baudouin d'Aumeries
Co-Development & Prog : Marc-Olivier Méhu
Technical & hardware support : Manuel Goepfert

Contact : metmap@orbifly.com




SOURCES & CREDITS :

   NOAA       Earth
Advisory